sensor_id;sensor_type;location;lat;lon;timestamp;P1;durP1;ratioP1;P2;durP2;ratioP2
20861;SDS011;10591;52.532;13.348;2023-11-25T00:01:31;2.43;;;1.77;;
20861;SDS011;10591;52.532;13.348;2023-11-25T00:04:02;3.13;;;2.03;;
20861;SDS011;10591;52.532;13.348;2023-11-25T00:06:33;4.77;;;2.53;;
20861;SDS011;10591;52.532;13.348;2023-11-25T00:09:04;3.57;;;2.00;;
20861;SDS011;10591;52.532;13.348;2023-11-25T00:11:37;4.90;;;2.10;;
20861;SDS011;10591;52.532;13.348;2023-11-25T00:14:11;5.10;;;2.50;;
20861;SDS011;10591;52.532;13.348;2023-11-25T00:16:41;4.77;;;2.10;;
20861;SDS011;10591;52.532;13.348;2023-11-25T00:19:12;5.00;;;2.03;;
20861;SDS011;10591;52.532;13.348;2023-11-25T00:21:44;5.50;;;2.03;;
20861;SDS011;10591;52.532;13.348;2023-11-25T00:24:15;5.70;;;2.03;;
20861;SDS011;10591;52.532;13.348;2023-11-25T00:26:45;5.15;;;2.30;;
20861;SDS011;10591;52.532;13.348;2023-11-25T00:29:16;3.60;;;2.10;;
20861;SDS011;10591;52.532;13.348;2023-11-25T00:31:48;7.67;;;3.20;;
20861;SDS011;10591;52.532;13.348;2023-11-25T00:34:25;6.20;;;3.40;;
20861;SDS011;10591;52.532;13.348;2023-11-25T00:36:53;7.50;;;3.17;;
20861;SDS011;10591;52.532;13.348;2023-11-25T00:39:24;3.03;;;1.97;;
20861;SDS011;10591;52.532;13.348;2023-11-25T00:41:56;4.93;;;2.47;;
20861;SDS011;10591;52.532;13.348;2023-11-25T00:44:27;6.10;;;2.00;;
20861;SDS011;10591;52.532;13.348;2023-11-25T00:47:00;4.00;;;2.20;;
20861;SDS011;10591;52.532;13.348;2023-11-25T00:49:32;4.00;;;1.77;;
20861;SDS011;10591;52.532;13.348;2023-11-25T00:52:05;4.00;;;1.60;;
20861;SDS011;10591;52.532;13.348;2023-11-25T00:54:36;4.97;;;2.27;;
20861;SDS011;10591;52.532;13.348;2023-11-25T00:57:08;2.73;;;1.80;;
20861;SDS011;10591;52.532;13.348;2023-11-25T00:59:38;3.60;;;1.77;;
20861;SDS011;10591;52.532;13.348;2023-11-25T01:02:09;5.60;;;1.87;;
20861;SDS011;10591;52.532;13.348;2023-11-25T01:04:40;2.60;;;2.00;;
20861;SDS011;10591;52.532;13.348;2023-11-25T01:07:11;5.63;;;2.23;;
20861;SDS011;10591;52.532;13.348;2023-11-25T01:09:42;4.87;;;2.30;;
20861;SDS011;10591;52.532;13.348;2023-11-25T01:12:13;4.73;;;2.10;;
20861;SDS011;10591;52.532;13.348;2023-11-25T01:14:45;3.70;;;1.50;;
20861;SDS011;10591;52.532;13.348;2023-11-25T01:17:45;4.80;;;1.47;;
20861;SDS011;10591;52.532;13.348;2023-11-25T01:20:16;3.00;;;1.80;;
20861;SDS011;10591;52.532;13.348;2023-11-25T01:22:48;4.43;;;1.80;;
20861;SDS011;10591;52.532;13.348;2023-11-25T01:25:19;3.80;;;1.70;;
20861;SDS011;10591;52.532;13.348;2023-11-25T01:27:50;1.80;;;1.37;;
20861;SDS011;10591;52.532;13.348;2023-11-25T01:30:22;3.50;;;1.73;;
20861;SDS011;10591;52.532;13.348;2023-11-25T01:32:53;3.27;;;1.30;;
20861;SDS011;10591;52.532;13.348;2023-11-25T01:35:24;2.30;;;1.60;;
20861;SDS011;10591;52.532;13.348;2023-11-25T01:37:55;2.60;;;1.20;;
20861;SDS011;10591;52.532;13.348;2023-11-25T01:40:25;2.60;;;1.37;;
20861;SDS011;10591;52.532;13.348;2023-11-25T01:42:56;2.63;;;1.60;;
20861;SDS011;10591;52.532;13.348;2023-11-25T01:45:27;2.40;;;1.37;;
20861;SDS011;10591;52.532;13.348;2023-11-25T01:47:58;3.83;;;1.43;;
20861;SDS011;10591;52.532;13.348;2023-11-25T01:50:31;3.70;;;1.40;;
20861;SDS011;10591;52.532;13.348;2023-11-25T01:53:07;4.77;;;1.50;;
20861;SDS011;10591;52.532;13.348;2023-11-25T01:55:40;4.60;;;1.50;;
20861;SDS011;10591;52.532;13.348;2023-11-25T01:58:13;3.93;;;1.40;;
20861;SDS011;10591;52.532;13.348;2023-11-25T02:00:45;3.77;;;1.20;;
20861;SDS011;10591;52.532;13.348;2023-11-25T02:03:18;3.07;;;1.53;;
20861;SDS011;10591;52.532;13.348;2023-11-25T02:05:48;5.80;;;1.60;;
20861;SDS011;10591;52.532;13.348;2023-11-25T02:08:19;4.97;;;1.50;;
20861;SDS011;10591;52.532;13.348;2023-11-25T02:10:51;3.58;;;1.50;;
20861;SDS011;10591;52.532;13.348;2023-11-25T02:13:22;4.00;;;1.50;;
20861;SDS011;10591;52.532;13.348;2023-11-25T02:15:55;2.57;;;1.40;;
20861;SDS011;10591;52.532;13.348;2023-11-25T02:18:25;4.50;;;1.37;;
20861;SDS011;10591;52.532;13.348;2023-11-25T02:20:56;4.10;;;1.47;;
20861;SDS011;10591;52.532;13.348;2023-11-25T02:23:29;3.43;;;1.90;;
20861;SDS011;10591;52.532;13.348;2023-11-25T02:26:00;5.27;;;1.87;;
20861;SDS011;10591;52.532;13.348;2023-11-25T02:28:33;3.00;;;1.50;;
20861;SDS011;10591;52.532;13.348;2023-11-25T02:31:04;3.47;;;1.50;;
20861;SDS011;10591;52.532;13.348;2023-11-25T02:33:37;5.83;;;1.33;;
20861;SDS011;10591;52.532;13.348;2023-11-25T02:36:10;3.77;;;1.47;;
20861;SDS011;10591;52.532;13.348;2023-11-25T02:38:43;2.17;;;1.40;;
20861;SDS011;10591;52.532;13.348;2023-11-25T02:41:14;3.37;;;1.43;;
20861;SDS011;10591;52.532;13.348;2023-11-25T02:43:47;3.17;;;1.23;;
20861;SDS011;10591;52.532;13.348;2023-11-25T02:46:18;3.13;;;1.60;;
20861;SDS011;10591;52.532;13.348;2023-11-25T02:48:48;5.07;;;1.70;;
20861;SDS011;10591;52.532;13.348;2023-11-25T02:51:20;2.80;;;1.20;;
20861;SDS011;10591;52.532;13.348;2023-11-25T02:53:52;3.30;;;1.37;;
20861;SDS011;10591;52.532;13.348;2023-11-25T02:56:23;3.57;;;1.07;;
20861;SDS011;10591;52.532;13.348;2023-11-25T02:58:54;2.47;;;1.20;;
20861;SDS011;10591;52.532;13.348;2023-11-25T03:01:26;6.53;;;1.60;;
20861;SDS011;10591;52.532;13.348;2023-11-25T03:03:59;2.93;;;1.30;;
20861;SDS011;10591;52.532;13.348;2023-11-25T03:06:31;4.13;;;1.40;;
20861;SDS011;10591;52.532;13.348;2023-11-25T03:09:02;3.50;;;1.47;;
20861;SDS011;10591;52.532;13.348;2023-11-25T03:11:34;2.17;;;1.20;;
20861;SDS011;10591;52.532;13.348;2023-11-25T03:14:05;4.03;;;1.30;;
20861;SDS011;10591;52.532;13.348;2023-11-25T03:16:36;4.90;;;1.43;;
20861;SDS011;10591;52.532;13.348;2023-11-25T03:19:08;4.87;;;1.60;;
20861;SDS011;10591;52.532;13.348;2023-11-25T03:21:40;5.10;;;1.73;;
20861;SDS011;10591;52.532;13.348;2023-11-25T03:24:12;4.53;;;1.30;;
20861;SDS011;10591;52.532;13.348;2023-11-25T03:26:45;5.57;;;1.60;;
20861;SDS011;10591;52.532;13.348;2023-11-25T03:29:16;3.70;;;1.50;;
20861;SDS011;10591;52.532;13.348;2023-11-25T03:31:47;4.93;;;1.60;;
20861;SDS011;10591;52.532;13.348;2023-11-25T03:34:18;4.17;;;1.50;;
20861;SDS011;10591;52.532;13.348;2023-11-25T03:36:50;5.13;;;2.03;;
20861;SDS011;10591;52.532;13.348;2023-11-25T03:39:21;3.37;;;1.43;;
20861;SDS011;10591;52.532;13.348;2023-11-25T03:41:51;6.63;;;1.80;;
20861;SDS011;10591;52.532;13.348;2023-11-25T03:44:22;5.30;;;1.60;;
20861;SDS011;10591;52.532;13.348;2023-11-25T03:46:53;3.50;;;1.60;;
20861;SDS011;10591;52.532;13.348;2023-11-25T03:49:24;2.70;;;1.90;;
20861;SDS011;10591;52.532;13.348;2023-11-25T03:51:56;5.53;;;1.80;;
20861;SDS011;10591;52.532;13.348;2023-11-25T03:54:27;5.70;;;1.80;;
20861;SDS011;10591;52.532;13.348;2023-11-25T03:56:57;2.53;;;1.43;;
20861;SDS011;10591;52.532;13.348;2023-11-25T03:59:28;5.63;;;1.70;;
20861;SDS011;10591;52.532;13.348;2023-11-25T04:01:59;7.03;;;1.80;;
20861;SDS011;10591;52.532;13.348;2023-11-25T04:04:30;3.33;;;1.73;;
20861;SDS011;10591;52.532;13.348;2023-11-25T04:07:01;3.73;;;1.63;;
20861;SDS011;10591;52.532;13.348;2023-11-25T04:09:32;4.15;;;1.80;;
20861;SDS011;10591;52.532;13.348;2023-11-25T04:12:03;4.80;;;1.60;;
20861;SDS011;10591;52.532;13.348;2023-11-25T04:14:34;4.77;;;1.97;;
20861;SDS011;10591;52.532;13.348;2023-11-25T04:17:04;5.70;;;1.80;;
20861;SDS011;10591;52.532;13.348;2023-11-25T04:19:39;5.50;;;2.00;;
20861;SDS011;10591;52.532;13.348;2023-11-25T04:22:10;6.50;;;2.20;;
20861;SDS011;10591;52.532;13.348;2023-11-25T04:24:41;7.17;;;2.00;;
20861;SDS011;10591;52.532;13.348;2023-11-25T04:27:11;4.23;;;2.33;;
20861;SDS011;10591;52.532;13.348;2023-11-25T04:29:42;7.47;;;2.50;;
20861;SDS011;10591;52.532;13.348;2023-11-25T04:32:12;7.13;;;2.57;;
20861;SDS011;10591;52.532;13.348;2023-11-25T04:34:43;5.30;;;2.20;;
20861;SDS011;10591;52.532;13.348;2023-11-25T04:37:13;5.17;;;2.50;;
20861;SDS011;10591;52.532;13.348;2023-11-25T04:39:45;8.13;;;3.17;;
20861;SDS011;10591;52.532;13.348;2023-11-25T04:42:15;7.13;;;2.60;;
20861;SDS011;10591;52.532;13.348;2023-11-25T04:44:48;6.27;;;2.70;;
20861;SDS011;10591;52.532;13.348;2023-11-25T04:47:21;9.87;;;3.10;;
20861;SDS011;10591;52.532;13.348;2023-11-25T04:49:51;6.63;;;2.83;;
20861;SDS011;10591;52.532;13.348;2023-11-25T04:52:22;8.33;;;2.93;;
20861;SDS011;10591;52.532;13.348;2023-11-25T04:54:53;5.57;;;2.63;;
20861;SDS011;10591;52.532;13.348;2023-11-25T04:57:24;5.63;;;2.67;;
20861;SDS011;10591;52.532;13.348;2023-11-25T04:59:54;5.77;;;2.80;;
20861;SDS011;10591;52.532;13.348;2023-11-25T05:02:25;8.30;;;2.97;;
20861;SDS011;10591;52.532;13.348;2023-11-25T05:04:56;6.07;;;2.87;;
20861;SDS011;10591;52.532;13.348;2023-11-25T05:07:26;5.70;;;2.40;;
20861;SDS011;10591;52.532;13.348;2023-11-25T05:09:57;7.50;;;2.60;;
20861;SDS011;10591;52.532;13.348;2023-11-25T05:12:28;4.30;;;2.50;;
20861;SDS011;10591;52.532;13.348;2023-11-25T05:14:58;4.90;;;2.27;;
20861;SDS011;10591;52.532;13.348;2023-11-25T05:17:29;6.60;;;2.50;;
20861;SDS011;10591;52.532;13.348;2023-11-25T05:20:00;5.10;;;2.37;;
20861;SDS011;10591;52.532;13.348;2023-11-25T05:22:31;5.93;;;2.20;;
20861;SDS011;10591;52.532;13.348;2023-11-25T05:25:02;5.10;;;2.50;;
20861;SDS011;10591;52.532;13.348;2023-11-25T05:27:34;4.47;;;2.00;;
20861;SDS011;10591;52.532;13.348;2023-11-25T05:30:07;7.90;;;2.30;;
20861;SDS011;10591;52.532;13.348;2023-11-25T05:32:41;5.43;;;2.00;;
20861;SDS011;10591;52.532;13.348;2023-11-25T05:35:12;6.57;;;2.33;;
20861;SDS011;10591;52.532;13.348;2023-11-25T05:37:43;9.00;;;2.30;;
20861;SDS011;10591;52.532;13.348;2023-11-25T05:40:14;6.67;;;2.30;;
20861;SDS011;10591;52.532;13.348;2023-11-25T05:42:45;7.80;;;2.40;;
20861;SDS011;10591;52.532;13.348;2023-11-25T05:45:20;6.73;;;2.03;;
20861;SDS011;10591;52.532;13.348;2023-11-25T05:47:52;4.93;;;2.30;;
20861;SDS011;10591;52.532;13.348;2023-11-25T05:50:23;6.53;;;2.47;;
20861;SDS011;10591;52.532;13.348;2023-11-25T05:52:55;6.17;;;2.13;;
20861;SDS011;10591;52.532;13.348;2023-11-25T05:55:26;5.20;;;2.10;;
20861;SDS011;10591;52.532;13.348;2023-11-25T05:57:58;7.87;;;2.20;;
20861;SDS011;10591;52.532;13.348;2023-11-25T06:00:30;5.90;;;2.13;;
20861;SDS011;10591;52.532;13.348;2023-11-25T06:03:01;6.17;;;2.17;;
20861;SDS011;10591;52.532;13.348;2023-11-25T06:05:33;6.37;;;1.93;;
20861;SDS011;10591;52.532;13.348;2023-11-25T06:08:04;7.33;;;2.00;;
20861;SDS011;10591;52.532;13.348;2023-11-25T06:10:35;4.90;;;1.80;;
20861;SDS011;10591;52.532;13.348;2023-11-25T06:13:06;4.37;;;1.97;;
20861;SDS011;10591;52.532;13.348;2023-11-25T06:15:38;6.10;;;1.80;;
20861;SDS011;10591;52.532;13.348;2023-11-25T06:18:08;5.77;;;1.90;;
20861;SDS011;10591;52.532;13.348;2023-11-25T06:20:41;6.20;;;2.10;;
20861;SDS011;10591;52.532;13.348;2023-11-25T06:23:13;5.30;;;2.27;;
20861;SDS011;10591;52.532;13.348;2023-11-25T06:25:43;7.80;;;2.13;;
20861;SDS011;10591;52.532;13.348;2023-11-25T06:28:14;9.07;;;2.50;;
20861;SDS011;10591;52.532;13.348;2023-11-25T06:30:46;5.77;;;2.40;;
20861;SDS011;10591;52.532;13.348;2023-11-25T06:33:18;7.13;;;2.70;;
20861;SDS011;10591;52.532;13.348;2023-11-25T06:35:51;6.17;;;2.17;;
20861;SDS011;10591;52.532;13.348;2023-11-25T06:38:25;7.50;;;2.13;;
20861;SDS011;10591;52.532;13.348;2023-11-25T06:40:56;10.13;;;1.90;;
20861;SDS011;10591;52.532;13.348;2023-11-25T06:43:27;4.33;;;2.07;;
20861;SDS011;10591;52.532;13.348;2023-11-25T06:45:58;5.83;;;2.67;;
20861;SDS011;10591;52.532;13.348;2023-11-25T06:48:29;4.17;;;1.90;;
20861;SDS011;10591;52.532;13.348;2023-11-25T06:51:01;6.87;;;2.30;;
20861;SDS011;10591;52.532;13.348;2023-11-25T06:53:32;5.20;;;2.30;;
20861;SDS011;10591;52.532;13.348;2023-11-25T06:56:04;7.30;;;2.37;;
20861;SDS011;10591;52.532;13.348;2023-11-25T06:58:45;4.17;;;2.60;;
20861;SDS011;10591;52.532;13.348;2023-11-25T07:01:16;8.77;;;3.27;;
20861;SDS011;10591;52.532;13.348;2023-11-25T07:03:51;6.10;;;2.73;;
20861;SDS011;10591;52.532;13.348;2023-11-25T07:06:23;3.93;;;2.10;;
20861;SDS011;10591;52.532;13.348;2023-11-25T07:08:53;6.30;;;2.10;;
20861;SDS011;10591;52.532;13.348;2023-11-25T07:11:27;6.13;;;2.30;;
20861;SDS011;10591;52.532;13.348;2023-11-25T07:14:00;7.87;;;3.20;;
20861;SDS011;10591;52.532;13.348;2023-11-25T07:16:32;8.63;;;2.37;;
20861;SDS011;10591;52.532;13.348;2023-11-25T07:19:05;10.37;;;2.73;;
20861;SDS011;10591;52.532;13.348;2023-11-25T07:21:37;7.37;;;2.97;;
20861;SDS011;10591;52.532;13.348;2023-11-25T07:24:08;5.83;;;2.50;;
20861;SDS011;10591;52.532;13.348;2023-11-25T07:26:41;6.03;;;2.20;;
20861;SDS011;10591;52.532;13.348;2023-11-25T07:29:15;3.13;;;2.00;;
20861;SDS011;10591;52.532;13.348;2023-11-25T07:31:47;7.13;;;2.37;;
20861;SDS011;10591;52.532;13.348;2023-11-25T07:34:17;6.80;;;2.20;;
20861;SDS011;10591;52.532;13.348;2023-11-25T07:36:48;6.00;;;2.30;;
20861;SDS011;10591;52.532;13.348;2023-11-25T07:39:19;6.13;;;2.80;;
20861;SDS011;10591;52.532;13.348;2023-11-25T07:41:51;5.77;;;2.50;;
20861;SDS011;10591;52.532;13.348;2023-11-25T07:44:27;7.03;;;2.67;;
20861;SDS011;10591;52.532;13.348;2023-11-25T07:47:03;8.80;;;2.60;;
20861;SDS011;10591;52.532;13.348;2023-11-25T07:49:34;5.73;;;2.43;;
20861;SDS011;10591;52.532;13.348;2023-11-25T07:52:06;7.77;;;2.37;;
20861;SDS011;10591;52.532;13.348;2023-11-25T07:54:39;6.80;;;2.83;;
20861;SDS011;10591;52.532;13.348;2023-11-25T07:57:11;5.73;;;2.10;;
20861;SDS011;10591;52.532;13.348;2023-11-25T07:59:44;8.30;;;2.43;;
20861;SDS011;10591;52.532;13.348;2023-11-25T08:02:17;7.60;;;2.50;;
20861;SDS011;10591;52.532;13.348;2023-11-25T08:04:48;6.17;;;2.77;;
20861;SDS011;10591;52.532;13.348;2023-11-25T08:07:20;6.77;;;2.50;;
20861;SDS011;10591;52.532;13.348;2023-11-25T08:09:52;4.43;;;2.30;;
20861;SDS011;10591;52.532;13.348;2023-11-25T08:12:23;7.57;;;2.40;;
20861;SDS011;10591;52.532;13.348;2023-11-25T08:14:54;5.20;;;3.07;;
20861;SDS011;10591;52.532;13.348;2023-11-25T08:17:24;6.47;;;2.43;;
20861;SDS011;10591;52.532;13.348;2023-11-25T08:19:57;8.43;;;3.70;;
20861;SDS011;10591;52.532;13.348;2023-11-25T08:22:31;6.80;;;3.00;;
20861;SDS011;10591;52.532;13.348;2023-11-25T08:25:02;7.17;;;2.50;;
20861;SDS011;10591;52.532;13.348;2023-11-25T08:27:35;6.53;;;2.83;;
20861;SDS011;10591;52.532;13.348;2023-11-25T08:30:10;6.07;;;2.00;;
20861;SDS011;10591;52.532;13.348;2023-11-25T08:32:42;6.40;;;2.90;;
20861;SDS011;10591;52.532;13.348;2023-11-25T08:35:14;6.50;;;2.30;;
20861;SDS011;10591;52.532;13.348;2023-11-25T08:37:47;4.30;;;2.53;;
20861;SDS011;10591;52.532;13.348;2023-11-25T08:40:19;9.27;;;3.13;;
20861;SDS011;10591;52.532;13.348;2023-11-25T08:42:52;7.47;;;2.60;;
20861;SDS011;10591;52.532;13.348;2023-11-25T08:45:26;6.50;;;2.60;;
20861;SDS011;10591;52.532;13.348;2023-11-25T08:47:57;6.10;;;2.57;;
20861;SDS011;10591;52.532;13.348;2023-11-25T08:50:28;7.67;;;2.67;;
20861;SDS011;10591;52.532;13.348;2023-11-25T08:52:59;7.10;;;2.80;;
20861;SDS011;10591;52.532;13.348;2023-11-25T08:55:31;9.10;;;2.53;;
20861;SDS011;10591;52.532;13.348;2023-11-25T08:58:04;7.13;;;2.77;;
20861;SDS011;10591;52.532;13.348;2023-11-25T09:00:36;7.03;;;2.77;;
20861;SDS011;10591;52.532;13.348;2023-11-25T09:03:07;6.67;;;2.10;;
20861;SDS011;10591;52.532;13.348;2023-11-25T09:05:39;3.60;;;2.22;;
20861;SDS011;10591;52.532;13.348;2023-11-25T09:08:10;4.62;;;2.33;;
20861;SDS011;10591;52.532;13.348;2023-11-25T09:10:42;10.37;;;4.33;;
20861;SDS011;10591;52.532;13.348;2023-11-25T09:13:14;4.50;;;2.20;;
20861;SDS011;10591;52.532;13.348;2023-11-25T09:15:48;6.50;;;2.40;;
20861;SDS011;10591;52.532;13.348;2023-11-25T09:18:19;5.17;;;2.02;;
20861;SDS011;10591;52.532;13.348;2023-11-25T09:20:50;4.73;;;2.33;;
20861;SDS011;10591;52.532;13.348;2023-11-25T09:23:21;6.05;;;2.40;;
20861;SDS011;10591;52.532;13.348;2023-11-25T09:25:53;3.70;;;1.67;;
20861;SDS011;10591;52.532;13.348;2023-11-25T09:28:24;7.22;;;2.20;;
20861;SDS011;10591;52.532;13.348;2023-11-25T09:30:57;5.78;;;2.05;;
20861;SDS011;10591;52.532;13.348;2023-11-25T09:33:28;8.73;;;3.17;;
20861;SDS011;10591;52.532;13.348;2023-11-25T09:36:03;6.95;;;3.05;;
20861;SDS011;10591;52.532;13.348;2023-11-25T09:38:37;4.23;;;2.20;;
20861;SDS011;10591;52.532;13.348;2023-11-25T09:41:09;8.97;;;2.50;;
20861;SDS011;10591;52.532;13.348;2023-11-25T09:43:40;4.67;;;2.23;;
20861;SDS011;10591;52.532;13.348;2023-11-25T09:46:13;4.80;;;2.13;;
20861;SDS011;10591;52.532;13.348;2023-11-25T09:48:45;6.00;;;2.25;;
20861;SDS011;10591;52.532;13.348;2023-11-25T09:51:18;5.03;;;2.07;;
20861;SDS011;10591;52.532;13.348;2023-11-25T09:53:54;4.33;;;2.37;;
20861;SDS011;10591;52.532;13.348;2023-11-25T09:56:26;7.30;;;2.47;;
20861;SDS011;10591;52.532;13.348;2023-11-25T09:58:57;9.27;;;2.40;;
20861;SDS011;10591;52.532;13.348;2023-11-25T10:01:29;7.65;;;2.83;;
20861;SDS011;10591;52.532;13.348;2023-11-25T10:04:01;5.58;;;2.98;;
20861;SDS011;10591;52.532;13.348;2023-11-25T10:06:33;6.63;;;2.30;;
20861;SDS011;10591;52.532;13.348;2023-11-25T10:09:06;6.65;;;2.60;;
20861;SDS011;10591;52.532;13.348;2023-11-25T10:11:42;5.57;;;2.87;;
20861;SDS011;10591;52.532;13.348;2023-11-25T10:14:13;10.10;;;2.60;;
20861;SDS011;10591;52.532;13.348;2023-11-25T10:16:47;11.10;;;3.37;;
20861;SDS011;10591;52.532;13.348;2023-11-25T10:19:23;4.58;;;2.25;;
20861;SDS011;10591;52.532;13.348;2023-11-25T10:21:51;5.00;;;2.25;;
20861;SDS011;10591;52.532;13.348;2023-11-25T10:24:25;3.97;;;2.20;;
20861;SDS011;10591;52.532;13.348;2023-11-25T10:26:59;10.30;;;2.73;;
20861;SDS011;10591;52.532;13.348;2023-11-25T10:29:30;8.48;;;2.62;;
20861;SDS011;10591;52.532;13.348;2023-11-25T10:32:01;7.20;;;2.50;;
20861;SDS011;10591;52.532;13.348;2023-11-25T10:34:35;8.00;;;2.85;;
20861;SDS011;10591;52.532;13.348;2023-11-25T10:37:09;6.87;;;2.90;;
20861;SDS011;10591;52.532;13.348;2023-11-25T10:39:41;7.65;;;3.00;;
20861;SDS011;10591;52.532;13.348;2023-11-25T10:42:14;10.03;;;3.00;;
20861;SDS011;10591;52.532;13.348;2023-11-25T10:44:50;5.03;;;2.65;;
20861;SDS011;10591;52.532;13.348;2023-11-25T10:47:28;9.28;;;3.05;;
20861;SDS011;10591;52.532;13.348;2023-11-25T10:50:00;4.97;;;2.80;;
20861;SDS011;10591;52.532;13.348;2023-11-25T10:52:31;6.08;;;3.08;;
20861;SDS011;10591;52.532;13.348;2023-11-25T10:55:10;9.15;;;3.42;;
20861;SDS011;10591;52.532;13.348;2023-11-25T10:57:38;9.40;;;2.90;;
20861;SDS011;10591;52.532;13.348;2023-11-25T11:00:11;6.40;;;3.02;;
20861;SDS011;10591;52.532;13.348;2023-11-25T11:02:48;5.80;;;2.75;;
20861;SDS011;10591;52.532;13.348;2023-11-25T11:08:21;6.33;;;2.70;;
20861;SDS011;10591;52.532;13.348;2023-11-25T11:13:34;9.60;;;3.52;;
20861;SDS011;10591;52.532;13.348;2023-11-25T11:16:13;5.43;;;2.90;;
20861;SDS011;10591;52.532;13.348;2023-11-25T11:18:41;7.53;;;2.90;;
20861;SDS011;10591;52.532;13.348;2023-11-25T11:21:16;5.53;;;3.05;;
20861;SDS011;10591;52.532;13.348;2023-11-25T11:23:50;7.20;;;3.77;;
20861;SDS011;10591;52.532;13.348;2023-11-25T11:29:46;6.37;;;3.37;;
20861;SDS011;10591;52.532;13.348;2023-11-25T11:31:59;6.12;;;3.37;;
20861;SDS011;10591;52.532;13.348;2023-11-25T11:34:36;5.05;;;3.70;;
20861;SDS011;10591;52.532;13.348;2023-11-25T11:37:08;4.22;;;3.35;;
20861;SDS011;10591;52.532;13.348;2023-11-25T11:42:27;5.83;;;3.12;;
20861;SDS011;10591;52.532;13.348;2023-11-25T11:45:11;5.27;;;3.50;;
20861;SDS011;10591;52.532;13.348;2023-11-25T11:47:55;5.80;;;3.57;;
20861;SDS011;10591;52.532;13.348;2023-11-25T11:50:32;7.25;;;4.55;;
20861;SDS011;10591;52.532;13.348;2023-11-25T11:55:55;3.63;;;2.87;;
20861;SDS011;10591;52.532;13.348;2023-11-25T11:58:28;4.25;;;2.70;;
20861;SDS011;10591;52.532;13.348;2023-11-25T12:03:35;3.67;;;2.60;;
20861;SDS011;10591;52.532;13.348;2023-11-25T12:06:08;4.10;;;2.90;;
20861;SDS011;10591;52.532;13.348;2023-11-25T12:08:39;3.72;;;2.70;;
20861;SDS011;10591;52.532;13.348;2023-11-25T12:11:10;2.77;;;2.58;;
20861;SDS011;10591;52.532;13.348;2023-11-25T12:13:43;3.08;;;2.40;;
20861;SDS011;10591;52.532;13.348;2023-11-25T12:16:13;2.75;;;2.35;;
20861;SDS011;10591;52.532;13.348;2023-11-25T12:18:44;2.50;;;2.30;;
20861;SDS011;10591;52.532;13.348;2023-11-25T12:21:14;2.50;;;2.30;;
20861;SDS011;10591;52.532;13.348;2023-11-25T12:23:48;2.55;;;2.35;;
20861;SDS011;10591;52.532;13.348;2023-11-25T12:26:22;2.60;;;2.40;;
20861;SDS011;10591;52.532;13.348;2023-11-25T12:29:00;2.60;;;2.40;;
20861;SDS011;10591;52.532;13.348;2023-11-25T12:31:33;2.60;;;2.40;;
20861;SDS011;10591;52.532;13.348;2023-11-25T12:34:03;3.43;;;3.03;;
20861;SDS011;10591;52.532;13.348;2023-11-25T12:36:34;3.73;;;3.10;;
20861;SDS011;10591;52.532;13.348;2023-11-25T12:39:05;3.27;;;2.98;;
20861;SDS011;10591;52.532;13.348;2023-11-25T12:41:42;3.77;;;3.47;;
20861;SDS011;10591;52.532;13.348;2023-11-25T12:44:13;3.62;;;3.30;;
20861;SDS011;10591;52.532;13.348;2023-11-25T12:47:01;5.10;;;4.20;;
20861;SDS011;10591;52.532;13.348;2023-11-25T12:49:35;4.33;;;3.80;;
20861;SDS011;10591;52.532;13.348;2023-11-25T12:52:06;4.10;;;3.80;;
20861;SDS011;10591;52.532;13.348;2023-11-25T12:54:42;4.03;;;3.62;;
20861;SDS011;10591;52.532;13.348;2023-11-25T12:57:13;3.72;;;3.20;;
20861;SDS011;10591;52.532;13.348;2023-11-25T12:59:45;3.73;;;3.20;;
20861;SDS011;10591;52.532;13.348;2023-11-25T13:02:17;4.37;;;3.90;;
20861;SDS011;10591;52.532;13.348;2023-11-25T13:04:49;4.35;;;3.70;;
20861;SDS011;10591;52.532;13.348;2023-11-25T13:07:40;4.50;;;3.90;;
20861;SDS011;10591;52.532;13.348;2023-11-25T13:10:05;4.08;;;3.67;;
20861;SDS011;10591;52.532;13.348;2023-11-25T13:12:37;5.25;;;3.67;;
20861;SDS011;10591;52.532;13.348;2023-11-25T13:15:07;3.93;;;3.53;;
20861;SDS011;10591;52.532;13.348;2023-11-25T13:17:38;5.15;;;3.92;;
20861;SDS011;10591;52.532;13.348;2023-11-25T13:20:10;3.80;;;3.50;;
20861;SDS011;10591;52.532;13.348;2023-11-25T13:22:41;5.58;;;3.85;;
20861;SDS011;10591;52.532;13.348;2023-11-25T13:25:13;3.77;;;3.47;;
20861;SDS011;10591;52.532;13.348;2023-11-25T13:27:45;5.13;;;3.70;;
20861;SDS011;10591;52.532;13.348;2023-11-25T13:30:16;7.73;;;4.53;;
20861;SDS011;10591;52.532;13.348;2023-11-25T13:32:51;4.33;;;3.80;;
20861;SDS011;10591;52.532;13.348;2023-11-25T13:35:23;4.95;;;3.85;;
20861;SDS011;10591;52.532;13.348;2023-11-25T13:37:53;6.23;;;3.80;;
20861;SDS011;10591;52.532;13.348;2023-11-25T13:40:27;5.28;;;3.80;;
20861;SDS011;10591;52.532;13.348;2023-11-25T13:43:05;4.70;;;4.20;;
20861;SDS011;10591;52.532;13.348;2023-11-25T13:45:33;7.17;;;4.57;;
20861;SDS011;10591;52.532;13.348;2023-11-25T13:48:05;5.00;;;3.40;;
20861;SDS011;10591;52.532;13.348;2023-11-25T13:50:36;4.30;;;3.90;;
20861;SDS011;10591;52.532;13.348;2023-11-25T13:53:07;3.60;;;3.30;;
20861;SDS011;10591;52.532;13.348;2023-11-25T13:55:42;4.67;;;3.40;;
20861;SDS011;10591;52.532;13.348;2023-11-25T13:58:15;3.72;;;3.30;;
20861;SDS011;10591;52.532;13.348;2023-11-25T14:00:46;3.47;;;3.17;;
20861;SDS011;10591;52.532;13.348;2023-11-25T14:03:17;5.93;;;3.60;;
20861;SDS011;10591;52.532;13.348;2023-11-25T14:05:48;5.17;;;3.87;;
20861;SDS011;10591;52.532;13.348;2023-11-25T14:08:21;4.77;;;4.23;;
20861;SDS011;10591;52.532;13.348;2023-11-25T14:10:55;5.12;;;4.30;;
20861;SDS011;10591;52.532;13.348;2023-11-25T14:13:27;4.83;;;3.60;;
20861;SDS011;10591;52.532;13.348;2023-11-25T14:15:59;7.87;;;6.43;;
20861;SDS011;10591;52.532;13.348;2023-11-25T14:18:32;8.95;;;6.28;;
20861;SDS011;10591;52.532;13.348;2023-11-25T14:21:04;7.83;;;4.83;;
20861;SDS011;10591;52.532;13.348;2023-11-25T14:23:35;7.55;;;5.12;;
20861;SDS011;10591;52.532;13.348;2023-11-25T14:26:07;6.67;;;4.87;;
20861;SDS011;10591;52.532;13.348;2023-11-25T14:28:39;8.25;;;4.75;;
20861;SDS011;10591;52.532;13.348;2023-11-25T14:31:13;9.87;;;7.33;;
20861;SDS011;10591;52.532;13.348;2023-11-25T14:33:48;8.23;;;4.93;;
20861;SDS011;10591;52.532;13.348;2023-11-25T14:36:20;11.67;;;7.27;;
20861;SDS011;10591;52.532;13.348;2023-11-25T14:38:51;8.40;;;6.40;;
20861;SDS011;10591;52.532;13.348;2023-11-25T14:41:22;6.33;;;4.92;;
20861;SDS011;10591;52.532;13.348;2023-11-25T14:43:54;7.90;;;5.30;;
20861;SDS011;10591;52.532;13.348;2023-11-25T14:46:24;9.40;;;6.20;;
20861;SDS011;10591;52.532;13.348;2023-11-25T14:48:56;9.23;;;5.83;;
20861;SDS011;10591;52.532;13.348;2023-11-25T14:51:28;9.33;;;6.27;;
20861;SDS011;10591;52.532;13.348;2023-11-25T14:53:59;8.10;;;6.03;;
20861;SDS011;10591;52.532;13.348;2023-11-25T14:56:29;6.47;;;5.65;;
20861;SDS011;10591;52.532;13.348;2023-11-25T14:59:03;9.67;;;6.13;;
20861;SDS011;10591;52.532;13.348;2023-11-25T15:01:35;9.20;;;6.30;;
20861;SDS011;10591;52.532;13.348;2023-11-25T15:04:07;7.93;;;5.53;;
20861;SDS011;10591;52.532;13.348;2023-11-25T15:06:39;9.57;;;6.77;;
20861;SDS011;10591;52.532;13.348;2023-11-25T15:09:15;7.15;;;5.75;;
20861;SDS011;10591;52.532;13.348;2023-11-25T15:11:46;8.63;;;6.08;;
20861;SDS011;10591;52.532;13.348;2023-11-25T15:14:19;10.03;;;6.27;;
20861;SDS011;10591;52.532;13.348;2023-11-25T15:16:50;7.08;;;5.30;;
20861;SDS011;10591;52.532;13.348;2023-11-25T15:19:22;7.60;;;5.97;;